Time;durP1;ratioP1;P1;durP2;ratioP2;P2;SDS_P1;SDS_P2;PMS_P1;PMS_P2;Temp;Humidity;BMP_temperature;BMP_pressure;BME280_temperature;BME280_humidity;BME280_pressure;Samples;Min_cycle;Max_cycle;Signal;HPM_P1;HPM_P2
2022/11/11 00:00:22;;;;;;;133.07;87.87;;;;;;;;;;5025440;28;21250;-35
2022/11/11 00:02:48;;;;;;;127.27;87.60;;;;;;;;;;5021071;28;20518;-34
2022/11/11 00:05:15;;;;;;;138.70;90.77;;;;;;;;;;5021630;28;20183;-36
2022/11/11 00:07:42;;;;;;;149.10;94.43;;;;;;;;;;5023815;28;20321;-36
2022/11/11 00:10:08;;;;;;;136.87;90.77;;;;;;;;;;5028522;28;20168;-36
2022/11/11 00:12:34;;;;;;;137.33;91.67;;;;;;;;;;5026465;28;20199;-36
2022/11/11 00:15:00;;;;;;;144.33;92.60;;;;;;;;;;5025986;28;20183;-36
2022/11/11 00:25:45;;;;;;;157.23;100.23;;;;;;;;;;5025579;28;20640;-36
2022/11/11 00:28:11;;;;;;;164.27;103.77;;;;;;;;;;5030293;28;20182;-36
2022/11/11 00:30:37;;;;;;;142.97;93.80;;;;;;;;;;5030962;28;20249;-36
2022/11/11 00:33:03;;;;;;;156.87;103.20;;;;;;;;;;5028977;28;20722;-36
2022/11/11 00:41:00;;;;;;;148.90;97.83;;;;;;;;;;5032229;28;20248;-36
2022/11/11 00:43:26;;;;;;;157.77;101.57;;;;;;;;;;5029850;28;20788;-36
2022/11/11 00:45:52;;;;;;;147.37;96.97;;;;;;;;;;5025760;28;20605;-36
2022/11/11 00:51:03;;;;;;;158.43;102.37;;;;;;;;;;5028177;28;20669;-36
2022/11/11 00:53:31;;;;;;;142.03;95.47;;;;;;;;;;5030612;28;20206;-36
2022/11/11 00:55:58;;;;;;;145.70;96.37;;;;;;;;;;5028082;28;20181;-36
2022/11/11 00:58:24;;;;;;;154.47;101.47;;;;;;;;;;5030848;28;20270;-36
2022/11/11 01:00:52;;;;;;;165.10;106.60;;;;;;;;;;5023413;28;20686;-36
2022/11/11 01:03:18;;;;;;;156.97;102.63;;;;;;;;;;5025548;28;20760;-36
2022/11/11 01:05:45;;;;;;;145.53;97.77;;;;;;;;;;5033970;28;20197;-36
2022/11/11 01:08:11;;;;;;;144.43;100.07;;;;;;;;;;5026265;28;21838;-36
2022/11/11 01:10:37;;;;;;;148.50;98.30;;;;;;;;;;5022378;28;20262;-36
2022/11/11 01:13:13;;;;;;;163.17;103.33;;;;;;;;;;5024109;28;20231;-36
2022/11/11 01:15:40;;;;;;;150.53;99.90;;;;;;;;;;5016234;28;20167;-36
2022/11/11 01:18:07;;;;;;;162.67;104.20;;;;;;;;;;5016364;28;20175;-36
2022/11/11 01:20:33;;;;;;;169.40;104.97;;;;;;;;;;5019070;28;20176;-36
2022/11/11 01:22:59;;;;;;;152.60;103.53;;;;;;;;;;5019077;28;20555;-36
2022/11/11 01:25:25;;;;;;;155.50;101.47;;;;;;;;;;5020878;28;20195;-36
2022/11/11 01:27:51;;;;;;;167.80;106.63;;;;;;;;;;5018469;28;20183;-36
2022/11/11 01:30:17;;;;;;;141.80;98.20;;;;;;;;;;5013296;28;21172;-36
2022/11/11 01:32:43;;;;;;;167.20;110.23;;;;;;;;;;5017988;28;20358;-36
2022/11/11 01:35:09;;;;;;;154.80;103.17;;;;;;;;;;5016388;28;20254;-36
2022/11/11 01:37:36;;;;;;;135.43;94.00;;;;;;;;;;5014531;28;20533;-36
2022/11/11 01:40:02;;;;;;;156.93;101.63;;;;;;;;;;5020974;28;20272;-37
2022/11/11 01:42:28;;;;;;;158.17;103.03;;;;;;;;;;5010864;28;20445;-36
2022/11/11 01:44:54;;;;;;;174.30;109.57;;;;;;;;;;5024922;28;20187;-36
2022/11/11 01:47:21;;;;;;;148.50;101.23;;;;;;;;;;5029248;28;20183;-36
2022/11/11 01:49:55;;;;;;;142.33;97.90;;;;;;;;;;5022141;28;20199;-36
2022/11/11 01:52:25;;;;;;;141.03;99.60;;;;;;;;;;5023747;28;20606;-36
2022/11/11 01:55:06;;;;;;;169.87;109.57;;;;;;;;;;5026327;28;20859;-37
2022/11/11 01:57:42;;;;;;;178.70;110.40;;;;;;;;;;5020029;28;20182;-35
2022/11/11 02:00:18;;;;;;;162.57;105.40;;;;;;;;;;5017987;28;20222;-35
2022/11/11 02:02:53;;;;;;;161.63;106.17;;;;;;;;;;5022159;28;20301;-35
2022/11/11 02:08:07;;;;;;;188.23;116.23;;;;;;;;;;5021135;28;20296;-35
2022/11/11 02:10:33;;;;;;;162.33;108.77;;;;;;;;;;5026618;28;20363;-35
2022/11/11 02:15:44;;;;;;;148.40;100.80;;;;;;;;;;5020249;28;20303;-35
2022/11/11 02:18:11;;;;;;;140.77;98.40;;;;;;;;;;5021187;28;20171;-35
2022/11/11 02:20:38;;;;;;;157.17;105.50;;;;;;;;;;5029342;28;20187;-35
2022/11/11 02:23:07;;;;;;;155.60;105.30;;;;;;;;;;5027773;28;20179;-35
2022/11/11 02:25:33;;;;;;;151.00;103.30;;;;;;;;;;5027942;28;20191;-34
2022/11/11 02:28:03;;;;;;;147.30;101.20;;;;;;;;;;5026933;28;20714;-35
2022/11/11 02:30:29;;;;;;;151.80;104.43;;;;;;;;;;5022636;28;20180;-34
2022/11/11 02:32:55;;;;;;;148.73;98.40;;;;;;;;;;5029687;28;20203;-34
2022/11/11 02:35:24;;;;;;;150.03;101.93;;;;;;;;;;5026230;28;20172;-35
2022/11/11 02:37:51;;;;;;;138.00;97.47;;;;;;;;;;5020295;28;20227;-34
2022/11/11 02:40:19;;;;;;;148.27;100.40;;;;;;;;;;5022442;28;20397;-35
2022/11/11 02:42:45;;;;;;;142.10;97.70;;;;;;;;;;5023115;28;20183;-35
2022/11/11 02:45:11;;;;;;;148.63;99.87;;;;;;;;;;5019859;28;20494;-35
2022/11/11 02:47:37;;;;;;;135.63;96.50;;;;;;;;;;5004545;28;21207;-35
2022/11/11 02:50:03;;;;;;;140.37;96.17;;;;;;;;;;5021571;28;20290;-35
2022/11/11 02:52:29;;;;;;;146.03;99.07;;;;;;;;;;5025123;28;20211;-34
2022/11/11 02:54:55;;;;;;;132.07;93.03;;;;;;;;;;5018980;28;20183;-35
2022/11/11 02:57:22;;;;;;;130.57;92.00;;;;;;;;;;5018870;28;20282;-34
2022/11/11 02:59:48;;;;;;;122.67;88.90;;;;;;;;;;5018840;28;20428;-35
2022/11/11 03:02:14;;;;;;;126.50;89.17;;;;;;;;;;5022856;28;20924;-34
2022/11/11 03:04:40;;;;;;;132.20;93.50;;;;;;;;;;5019127;28;20183;-36
2022/11/11 03:07:06;;;;;;;130.30;92.10;;;;;;;;;;5024512;28;20179;-36
2022/11/11 03:09:32;;;;;;;137.00;94.97;;;;;;;;;;5029572;28;20180;-36
2022/11/11 03:11:59;;;;;;;133.50;91.43;;;;;;;;;;5029609;28;20400;-36
2022/11/11 03:14:25;;;;;;;130.53;90.50;;;;;;;;;;5023810;28;20821;-36
2022/11/11 03:19:36;;;;;;;140.63;93.53;;;;;;;;;;5026610;28;20284;-36
2022/11/11 03:22:02;;;;;;;171.20;107.23;;;;;;;;;;5029024;28;20218;-36
2022/11/11 03:27:14;;;;;;;140.30;95.30;;;;;;;;;;5023616;28;20196;-36
2022/11/11 03:29:41;;;;;;;175.57;109.83;;;;;;;;;;5029533;28;20175;-37
2022/11/11 03:32:08;;;;;;;154.60;102.50;;;;;;;;;;5024666;28;20292;-36
2022/11/11 03:34:34;;;;;;;166.73;107.10;;;;;;;;;;5026913;28;21032;-36
2022/11/11 03:39:45;;;;;;;146.23;99.20;;;;;;;;;;5030034;28;20233;-36
2022/11/11 03:42:11;;;;;;;149.13;98.47;;;;;;;;;;5026047;28;20241;-36
2022/11/11 03:44:37;;;;;;;143.90;95.30;;;;;;;;;;5027886;28;20183;-37
2022/11/11 03:47:03;;;;;;;150.47;98.63;;;;;;;;;;4995588;28;20997;-36
2022/11/11 03:49:29;;;;;;;138.63;93.60;;;;;;;;;;5027825;28;20661;-36
2022/11/11 03:51:55;;;;;;;137.27;94.43;;;;;;;;;;5028214;28;20789;-36
2022/11/11 03:54:21;;;;;;;141.53;95.33;;;;;;;;;;5031534;28;20171;-36
2022/11/11 03:56:47;;;;;;;156.77;101.77;;;;;;;;;;5030418;28;20773;-36
2022/11/11 03:59:14;;;;;;;162.20;103.27;;;;;;;;;;5032333;28;20192;-36
2022/11/11 04:18:10;;;;;;;159.47;104.63;;;;;;;;;;5030886;28;21144;-34
2022/11/11 04:23:21;;;;;;;171.13;112.53;;;;;;;;;;5031001;28;20240;-34
2022/11/11 04:25:51;;;;;;;168.83;107.57;;;;;;;;;;5030020;28;20393;-34
2022/11/11 04:31:02;;;;;;;159.77;105.93;;;;;;;;;;5029158;28;20729;-35
2022/11/11 04:33:28;;;;;;;154.07;102.47;;;;;;;;;;5028708;28;20588;-34
2022/11/11 04:35:54;;;;;;;145.53;99.93;;;;;;;;;;5030330;28;20168;-34
2022/11/11 04:41:07;;;;;;;176.43;108.97;;;;;;;;;;5029256;28;20197;-35
2022/11/11 04:45:26;;;;;;;168.50;110.60;;;;;;;;;;5031843;28;20824;-35
2022/11/11 04:46:22;;;;;;;202.93;120.13;;;;;;;;;;5030595;28;20198;-35
2022/11/11 04:48:48;;;;;;;187.50;113.03;;;;;;;;;;5030037;28;20565;-35
2022/11/11 04:51:14;;;;;;;157.73;105.13;;;;;;;;;;5027527;28;20607;-35
2022/11/11 04:53:41;;;;;;;182.83;113.73;;;;;;;;;;5031404;28;20390;-35
2022/11/11 04:59:15;;;;;;;195.43;116.53;;;;;;;;;;4963237;28;20224;-35
2022/11/11 05:04:26;;;;;;;200.67;114.33;;;;;;;;;;5031860;28;20202;-35
2022/11/11 05:09:37;;;;;;;180.80;111.57;;;;;;;;;;5033506;28;20452;-36
2022/11/11 05:12:03;;;;;;;169.60;106.67;;;;;;;;;;5029539;28;20343;-36
2022/11/11 05:22:44;;;;;;;166.93;103.60;;;;;;;;;;5030789;28;20459;-36
2022/11/11 05:25:29;;;;;;;174.13;106.00;;;;;;;;;;5031517;28;20198;-36
2022/11/11 05:27:58;;;;;;;187.23;109.50;;;;;;;;;;5025662;28;20234;-37
2022/11/11 05:30:25;;;;;;;171.07;104.40;;;;;;;;;;5024693;28;20446;-37
2022/11/11 05:32:51;;;;;;;227.47;121.77;;;;;;;;;;5025884;28;20326;-36
2022/11/11 05:35:18;;;;;;;260.37;128.60;;;;;;;;;;5029656;28;20204;-36
2022/11/11 05:38:18;;;;;;;223.63;119.47;;;;;;;;;;5027900;28;20179;-34
2022/11/11 05:40:30;;;;;;;190.20;107.37;;;;;;;;;;5027112;28;20202;-35
2022/11/11 05:42:56;;;;;;;182.27;109.77;;;;;;;;;;5024741;28;20176;-35
2022/11/11 05:45:22;;;;;;;206.93;116.93;;;;;;;;;;5030673;28;20477;-35
2022/11/11 05:47:48;;;;;;;195.10;114.43;;;;;;;;;;5022725;28;20659;-34
2022/11/11 05:50:15;;;;;;;164.13;103.07;;;;;;;;;;5026759;28;20190;-34
2022/11/11 05:52:46;;;;;;;165.63;103.33;;;;;;;;;;5030628;28;20490;-35
2022/11/11 05:55:12;;;;;;;180.77;106.73;;;;;;;;;;5026637;28;20237;-35
2022/11/11 05:57:38;;;;;;;224.00;120.10;;;;;;;;;;5024084;28;20183;-35
2022/11/11 06:00:04;;;;;;;237.70;123.57;;;;;;;;;;5029618;28;20178;-35
2022/11/11 06:02:30;;;;;;;208.17;117.43;;;;;;;;;;5031370;28;20611;-35
2022/11/11 06:04:57;;;;;;;250.50;124.97;;;;;;;;;;5026274;28;20180;-36
2022/11/11 06:07:23;;;;;;;199.43;115.13;;;;;;;;;;5027890;28;20199;-36
2022/11/11 06:09:49;;;;;;;189.33;109.90;;;;;;;;;;5026556;28;20191;-36
2022/11/11 06:12:15;;;;;;;180.87;109.13;;;;;;;;;;5024990;28;20790;-35
2022/11/11 06:14:41;;;;;;;245.87;126.13;;;;;;;;;;5028464;28;20828;-35
2022/11/11 06:17:07;;;;;;;247.93;127.53;;;;;;;;;;5025587;28;20623;-35
2022/11/11 06:19:33;;;;;;;204.40;118.60;;;;;;;;;;5006721;28;20234;-36
2022/11/11 06:22:00;;;;;;;273.67;132.17;;;;;;;;;;5025546;28;20272;-36
2022/11/11 06:24:26;;;;;;;287.30;136.97;;;;;;;;;;5023451;28;20537;-35
2022/11/11 06:26:53;;;;;;;249.23;128.83;;;;;;;;;;5024691;28;20649;-36
2022/11/11 06:29:19;;;;;;;222.03;122.23;;;;;;;;;;5027888;28;20500;-36
2022/11/11 06:31:45;;;;;;;240.53;128.47;;;;;;;;;;5023703;28;20286;-36
2022/11/11 06:34:11;;;;;;;215.37;123.53;;;;;;;;;;5028191;28;20196;-35
2022/11/11 06:36:38;;;;;;;203.23;117.07;;;;;;;;;;5032834;28;20176;-35
2022/11/11 06:39:04;;;;;;;244.37;131.43;;;;;;;;;;5033009;28;20206;-35
2022/11/11 06:41:30;;;;;;;286.33;135.97;;;;;;;;;;5027493;28;20531;-35
2022/11/11 06:43:56;;;;;;;311.97;145.53;;;;;;;;;;5027596;28;20715;-35
2022/11/11 06:46:23;;;;;;;293.13;141.67;;;;;;;;;;5031287;28;20179;-35
2022/11/11 06:48:49;;;;;;;229.30;122.30;;;;;;;;;;5030217;28;20176;-36
2022/11/11 06:51:16;;;;;;;224.33;123.00;;;;;;;;;;5031466;28;20195;-35
2022/11/11 06:53:42;;;;;;;211.73;119.37;;;;;;;;;;5030793;28;20394;-36
2022/11/11 06:56:08;;;;;;;237.70;128.27;;;;;;;;;;5029246;28;20573;-36
2022/11/11 06:58:34;;;;;;;265.93;134.57;;;;;;;;;;5024723;28;20381;-36
2022/11/11 07:01:03;;;;;;;239.47;128.33;;;;;;;;;;5031171;28;20229;-35
2022/11/11 07:03:30;;;;;;;242.47;129.57;;;;;;;;;;5030635;28;20238;-35
2022/11/11 07:05:57;;;;;;;261.43;133.17;;;;;;;;;;5028206;28;20195;-35
2022/11/11 07:08:23;;;;;;;281.33;138.30;;;;;;;;;;5027941;28;20608;-35
2022/11/11 07:10:50;;;;;;;266.67;135.53;;;;;;;;;;5026438;28;20599;-35
2022/11/11 07:13:16;;;;;;;292.47;137.43;;;;;;;;;;5027313;28;20623;-35
2022/11/11 07:15:42;;;;;;;261.00;132.90;;;;;;;;;;5027639;28;20817;-36
2022/11/11 07:18:09;;;;;;;259.07;133.93;;;;;;;;;;5024503;28;20701;-36
2022/11/11 07:20:36;;;;;;;272.70;137.83;;;;;;;;;;5029462;28;20701;-35
2022/11/11 07:23:02;;;;;;;269.40;135.40;;;;;;;;;;5029698;28;21278;-35
2022/11/11 07:25:28;;;;;;;261.83;133.40;;;;;;;;;;5029149;28;20195;-35
2022/11/11 07:27:54;;;;;;;254.50;131.07;;;;;;;;;;5028483;28;20837;-35
2022/11/11 07:30:20;;;;;;;251.23;130.30;;;;;;;;;;5031089;28;20283;-35
2022/11/11 07:32:47;;;;;;;247.63;129.53;;;;;;;;;;5029271;28;20198;-36
2022/11/11 07:35:14;;;;;;;220.90;121.30;;;;;;;;;;5029922;28;20190;-36
2022/11/11 07:37:41;;;;;;;229.50;126.37;;;;;;;;;;5030976;28;20707;-36
2022/11/11 07:40:08;;;;;;;241.70;126.67;;;;;;;;;;5026018;28;20596;-36
2022/11/11 07:42:37;;;;;;;204.43;116.93;;;;;;;;;;5031541;28;20667;-35
2022/11/11 07:45:04;;;;;;;215.73;117.70;;;;;;;;;;5021281;28;20610;-35
2022/11/11 07:47:30;;;;;;;228.63;121.20;;;;;;;;;;5030814;28;20176;-35
2022/11/11 07:49:56;;;;;;;221.57;118.00;;;;;;;;;;5032886;28;20333;-36
2022/11/11 07:52:22;;;;;;;213.70;119.40;;;;;;;;;;5032047;28;20719;-35
2022/11/11 07:54:49;;;;;;;204.67;113.13;;;;;;;;;;5032967;28;21188;-36
2022/11/11 07:57:15;;;;;;;204.03;114.23;;;;;;;;;;5030483;28;20172;-35
2022/11/11 07:59:41;;;;;;;214.83;116.97;;;;;;;;;;5028589;28;20351;-36
2022/11/11 08:02:09;;;;;;;213.97;117.03;;;;;;;;;;5023846;28;20179;-36
2022/11/11 08:04:35;;;;;;;208.00;115.53;;;;;;;;;;5028888;28;20479;-36
2022/11/11 08:07:01;;;;;;;189.63;107.57;;;;;;;;;;5026660;28;20183;-36
2022/11/11 08:09:27;;;;;;;198.80;111.37;;;;;;;;;;5028395;28;20179;-35
2022/11/11 08:14:38;;;;;;;194.50;108.37;;;;;;;;;;5029880;28;20191;-35
2022/11/11 08:17:04;;;;;;;183.67;105.30;;;;;;;;;;5027367;28;21003;-36
2022/11/11 08:19:30;;;;;;;187.93;106.50;;;;;;;;;;5031399;28;20345;-36
2022/11/11 08:21:56;;;;;;;183.47;103.90;;;;;;;;;;5029718;28;20195;-35
2022/11/11 08:24:22;;;;;;;189.57;105.20;;;;;;;;;;5007119;28;20184;-36
2022/11/11 08:26:49;;;;;;;173.17;99.17;;;;;;;;;;5028777;28;20669;-36
2022/11/11 08:29:15;;;;;;;185.93;104.57;;;;;;;;;;5028507;28;20482;-36
2022/11/11 08:31:41;;;;;;;182.60;102.40;;;;;;;;;;5029633;28;20622;-36
2022/11/11 08:34:07;;;;;;;183.23;104.53;;;;;;;;;;5029517;28;20208;-36
2022/11/11 08:36:33;;;;;;;162.27;95.13;;;;;;;;;;5027142;28;20179;-36
2022/11/11 08:39:00;;;;;;;168.67;98.60;;;;;;;;;;5026623;28;20391;-36
2022/11/11 08:41:26;;;;;;;178.77;102.80;;;;;;;;;;5027437;28;20188;-35
2022/11/11 08:43:52;;;;;;;171.40;100.53;;;;;;;;;;5030376;28;20981;-36
2022/11/11 08:46:18;;;;;;;177.83;99.27;;;;;;;;;;5028460;28;21046;-36
2022/11/11 08:48:45;;;;;;;178.27;104.37;;;;;;;;;;5027096;28;20613;-36
2022/11/11 08:51:11;;;;;;;162.10;98.50;;;;;;;;;;5026376;28;20171;-36
2022/11/11 08:53:37;;;;;;;166.13;98.13;;;;;;;;;;5029747;28;20196;-35
2022/11/11 08:56:03;;;;;;;175.23;101.23;;;;;;;;;;5031530;28;20211;-36
2022/11/11 08:58:30;;;;;;;174.53;100.90;;;;;;;;;;5030990;28;20226;-36
2022/11/11 09:00:56;;;;;;;168.87;100.63;;;;;;;;;;5026703;28;20172;-36
2022/11/11 09:03:22;;;;;;;171.97;100.80;;;;;;;;;;5034546;28;20798;-35
2022/11/11 09:05:48;;;;;;;159.13;97.63;;;;;;;;;;5030975;28;20204;-36
2022/11/11 09:08:14;;;;;;;163.77;98.63;;;;;;;;;;5028775;28;20287;-36
2022/11/11 09:10:40;;;;;;;161.27;98.13;;;;;;;;;;5012220;28;20179;-36
2022/11/11 09:13:07;;;;;;;152.17;93.33;;;;;;;;;;5029424;28;20242;-36
2022/11/11 09:15:33;;;;;;;155.70;95.97;;;;;;;;;;5033536;28;20857;-36
2022/11/11 09:18:00;;;;;;;160.03;99.10;;;;;;;;;;5029946;28;20181;-36
2022/11/11 09:20:26;;;;;;;170.07;100.87;;;;;;;;;;5028680;28;20604;-36
2022/11/11 09:22:52;;;;;;;159.23;97.47;;;;;;;;;;5030679;28;21713;-36
2022/11/11 09:25:19;;;;;;;160.60;99.80;;;;;;;;;;5031141;28;20260;-36
2022/11/11 09:27:54;;;;;;;155.77;96.27;;;;;;;;;;5031455;28;20277;-36
2022/11/11 09:30:20;;;;;;;160.43;96.37;;;;;;;;;;5029398;28;20195;-36
2022/11/11 09:32:46;;;;;;;157.23;95.40;;;;;;;;;;5033573;28;20223;-36
2022/11/11 09:35:12;;;;;;;157.43;99.03;;;;;;;;;;5034108;28;20211;-36
2022/11/11 09:37:38;;;;;;;143.97;92.63;;;;;;;;;;5031375;28;20311;-36
2022/11/11 09:40:04;;;;;;;154.67;93.73;;;;;;;;;;5030141;28;20567;-37
2022/11/11 09:42:33;;;;;;;150.77;95.30;;;;;;;;;;5032797;28;20291;-36
2022/11/11 09:45:06;;;;;;;164.03;100.33;;;;;;;;;;5033376;28;20218;-36
2022/11/11 09:47:32;;;;;;;148.93;90.40;;;;;;;;;;5032038;28;20964;-37
2022/11/11 09:50:00;;;;;;;168.43;101.50;;;;;;;;;;5029490;28;21049;-36
2022/11/11 09:52:42;;;;;;;154.20;95.60;;;;;;;;;;5032358;28;21056;-36
2022/11/11 09:55:17;;;;;;;167.73;99.53;;;;;;;;;;5033640;28;20175;-35
2022/11/11 09:57:46;;;;;;;153.80;95.73;;;;;;;;;;5029740;28;20805;-35
2022/11/11 10:00:21;;;;;;;148.70;92.10;;;;;;;;;;5031892;28;20728;-36
2022/11/11 10:02:52;;;;;;;153.53;97.73;;;;;;;;;;5028787;28;20179;-37
2022/11/11 10:05:20;;;;;;;157.50;98.63;;;;;;;;;;5032631;28;20179;-36
2022/11/11 10:07:49;;;;;;;150.17;94.07;;;;;;;;;;5029138;28;21076;-36
2022/11/11 10:10:17;;;;;;;153.90;98.40;;;;;;;;;;5029593;28;20496;-36
2022/11/11 10:12:47;;;;;;;154.03;94.47;;;;;;;;;;5028876;28;20235;-36
2022/11/11 10:15:14;;;;;;;150.27;94.47;;;;;;;;;;5031977;28;20176;-36
2022/11/11 10:17:46;;;;;;;145.90;91.23;;;;;;;;;;5031249;28;20173;-36
2022/11/11 10:20:22;;;;;;;150.27;92.60;;;;;;;;;;5031112;28;20180;-36
2022/11/11 10:22:54;;;;;;;150.17;92.93;;;;;;;;;;5029865;28;20580;-36
2022/11/11 10:25:22;;;;;;;132.23;83.23;;;;;;;;;;5030606;28;20532;-36
2022/11/11 10:27:51;;;;;;;147.67;91.80;;;;;;;;;;5028034;28;20462;-36
2022/11/11 10:30:24;;;;;;;142.23;87.80;;;;;;;;;;5030205;28;20180;-36
2022/11/11 10:32:59;;;;;;;139.80;87.77;;;;;;;;;;5029352;28;20740;-36
2022/11/11 10:35:28;;;;;;;142.47;87.40;;;;;;;;;;5029437;28;20178;-37
2022/11/11 10:37:58;;;;;;;140.37;87.53;;;;;;;;;;5011552;28;20207;-36
2022/11/11 10:40:27;;;;;;;137.23;87.00;;;;;;;;;;5031991;28;20182;-37
2022/11/11 10:42:53;;;;;;;135.07;85.57;;;;;;;;;;5015210;28;20198;-37
2022/11/11 10:45:32;;;;;;;137.10;84.67;;;;;;;;;;5030152;28;20180;-37
2022/11/11 10:48:01;;;;;;;125.67;81.73;;;;;;;;;;5033049;28;20179;-36
2022/11/11 10:50:38;;;;;;;123.10;79.20;;;;;;;;;;5031327;28;20206;-36
2022/11/11 10:53:07;;;;;;;112.27;75.93;;;;;;;;;;5029153;28;20183;-37
2022/11/11 10:55:57;;;;;;;120.43;78.10;;;;;;;;;;5032259;28;20533;-36
2022/11/11 10:58:47;;;;;;;123.70;81.10;;;;;;;;;;4994080;28;20195;-36
2022/11/11 11:01:15;;;;;;;122.10;79.37;;;;;;;;;;5008459;28;20225;-36
2022/11/11 11:03:43;;;;;;;119.03;76.93;;;;;;;;;;5029318;28;20178;-37
2022/11/11 11:06:29;;;;;;;119.47;77.13;;;;;;;;;;5034250;28;20179;-35
2022/11/11 11:08:59;;;;;;;128.30;80.97;;;;;;;;;;5029419;28;20179;-35
2022/11/11 11:11:35;;;;;;;135.23;82.07;;;;;;;;;;5029925;28;20218;-35
2022/11/11 11:14:02;;;;;;;122.70;80.20;;;;;;;;;;5033717;28;20474;-35
2022/11/11 11:16:32;;;;;;;123.63;78.53;;;;;;;;;;5030354;28;20171;-35
2022/11/11 11:19:18;;;;;;;127.47;78.90;;;;;;;;;;5027599;28;20551;-35
2022/11/11 11:21:50;;;;;;;120.10;74.80;;;;;;;;;;5013662;28;20674;-35
2022/11/11 11:24:20;;;;;;;120.83;77.87;;;;;;;;;;5032719;28;20183;-35
2022/11/11 11:26:48;;;;;;;120.50;74.93;;;;;;;;;;5028940;28;20766;-35
2022/11/11 11:29:23;;;;;;;115.53;75.70;;;;;;;;;;5026370;28;20175;-35
2022/11/11 11:31:49;;;;;;;117.03;74.60;;;;;;;;;;5031940;28;20405;-35
2022/11/11 11:34:15;;;;;;;123.33;78.63;;;;;;;;;;5030523;28;20736;-35
2022/11/11 11:36:42;;;;;;;126.40;79.37;;;;;;;;;;5029659;28;20167;-35
2022/11/11 11:39:08;;;;;;;120.53;76.23;;;;;;;;;;5027157;28;20187;-35
2022/11/11 11:41:40;;;;;;;124.10;76.60;;;;;;;;;;5030526;28;20273;-35
2022/11/11 11:44:24;;;;;;;124.50;77.77;;;;;;;;;;5031419;28;20176;-35
2022/11/11 11:46:52;;;;;;;127.07;78.97;;;;;;;;;;5025431;28;20175;-35
2022/11/11 11:49:33;;;;;;;118.50;74.47;;;;;;;;;;5030660;28;20742;-35
2022/11/11 11:52:14;;;;;;;123.20;74.27;;;;;;;;;;5033068;28;20172;-35
2022/11/11 11:54:55;;;;;;;118.93;74.03;;;;;;;;;;5029506;28;20183;-35
2022/11/11 11:57:33;;;;;;;124.00;75.63;;;;;;;;;;5014539;28;20180;-35
2022/11/11 12:00:06;;;;;;;123.10;74.93;;;;;;;;;;5030273;28;20180;-35
2022/11/11 12:02:41;;;;;;;110.37;68.37;;;;;;;;;;5029713;28;20818;-35
2022/11/11 12:05:07;;;;;;;116.30;72.87;;;;;;;;;;5028007;28;20240;-34
2022/11/11 12:07:36;;;;;;;112.70;70.70;;;;;;;;;;5032027;28;20431;-35
2022/11/11 12:10:02;;;;;;;110.37;71.33;;;;;;;;;;5028213;28;20357;-35
2022/11/11 12:12:39;;;;;;;117.57;72.30;;;;;;;;;;5028650;28;20257;-35
2022/11/11 12:15:18;;;;;;;119.63;74.37;;;;;;;;;;5035702;28;20352;-36
2022/11/11 12:17:57;;;;;;;112.77;69.37;;;;;;;;;;5033725;28;20494;-35
2022/11/11 12:20:46;;;;;;;109.87;67.50;;;;;;;;;;5031973;28;20183;-36
2022/11/11 12:23:35;;;;;;;101.33;62.93;;;;;;;;;;5033264;28;20179;-35
2022/11/11 12:26:17;;;;;;;84.70;57.23;;;;;;;;;;4986529;28;20255;-35
2022/11/11 12:28:57;;;;;;;80.57;52.37;;;;;;;;;;5034388;28;20981;-35
2022/11/11 12:31:29;;;;;;;94.83;59.90;;;;;;;;;;5032584;28;20710;-36
2022/11/11 12:33:55;;;;;;;94.80;59.60;;;;;;;;;;5028852;28;20199;-35
2022/11/11 12:36:40;;;;;;;90.00;58.63;;;;;;;;;;5029413;28;20183;-35
2022/11/11 12:39:16;;;;;;;98.40;62.17;;;;;;;;;;5030865;28;20290;-35
2022/11/11 12:41:52;;;;;;;90.30;59.23;;;;;;;;;;5025051;28;20626;-36
2022/11/11 12:44:19;;;;;;;88.27;58.13;;;;;;;;;;5034061;28;20179;-36
2022/11/11 12:47:06;;;;;;;89.93;58.43;;;;;;;;;;5036370;28;20650;-35
2022/11/11 12:49:51;;;;;;;95.70;59.57;;;;;;;;;;5030607;28;20719;-35
2022/11/11 12:52:43;;;;;;;89.10;59.27;;;;;;;;;;5032877;28;20301;-35
2022/11/11 12:55:23;;;;;;;82.17;55.00;;;;;;;;;;5027987;28;20184;-36
2022/11/11 12:58:01;;;;;;;85.37;54.60;;;;;;;;;;5034763;28;20276;-35
2022/11/11 13:00:28;;;;;;;80.47;52.40;;;;;;;;;;5030797;28;20183;-35
2022/11/11 13:03:03;;;;;;;80.37;53.67;;;;;;;;;;5034165;28;20757;-35
2022/11/11 13:05:29;;;;;;;81.03;52.27;;;;;;;;;;5034581;28;20332;-36
2022/11/11 13:07:55;;;;;;;70.47;48.77;;;;;;;;;;5033753;28;20186;-36
2022/11/11 13:11:03;;;;;;;74.03;47.90;;;;;;;;;;5012834;28;20413;-36
2022/11/11 13:13:38;;;;;;;67.60;45.27;;;;;;;;;;4951683;28;21211;-34
2022/11/11 13:16:04;;;;;;;65.53;43.60;;;;;;;;;;4954997;28;20178;-34
2022/11/11 13:18:44;;;;;;;70.60;45.63;;;;;;;;;;4995632;28;20200;-37
2022/11/11 13:21:13;;;;;;;70.57;47.33;;;;;;;;;;5031326;28;20175;-35
2022/11/11 13:23:39;;;;;;;76.30;50.07;;;;;;;;;;5032651;28;20180;-36
2022/11/11 13:26:13;;;;;;;78.17;51.70;;;;;;;;;;5029415;28;20590;-35
2022/11/11 13:28:41;;;;;;;82.30;54.00;;;;;;;;;;5019079;28;20253;-35
2022/11/11 13:31:22;;;;;;;83.97;55.00;;;;;;;;;;5033210;28;20273;-36
2022/11/11 13:33:51;;;;;;;76.67;51.70;;;;;;;;;;5030510;28;20203;-36
2022/11/11 13:36:18;;;;;;;76.80;49.13;;;;;;;;;;5029745;28;20345;-36
2022/11/11 13:38:48;;;;;;;76.10;49.93;;;;;;;;;;5030232;28;20708;-36
2022/11/11 13:41:35;;;;;;;71.43;47.03;;;;;;;;;;5031670;28;20176;-36
2022/11/11 13:44:04;;;;;;;73.30;48.43;;;;;;;;;;5028604;28;20168;-36
2022/11/11 13:46:35;;;;;;;74.37;49.07;;;;;;;;;;5026365;28;20180;-36
2022/11/11 13:49:02;;;;;;;76.63;48.90;;;;;;;;;;5029630;28;21312;-36
2022/11/11 13:51:41;;;;;;;73.33;48.27;;;;;;;;;;5030752;28;20183;-36
2022/11/11 13:54:28;;;;;;;66.47;42.73;;;;;;;;;;5024776;28;20203;-36
2022/11/11 13:57:01;;;;;;;77.93;50.30;;;;;;;;;;5029743;28;20652;-36
2022/11/11 13:59:29;;;;;;;85.50;52.10;;;;;;;;;;5031577;28;20622;-36
2022/11/11 14:02:13;;;;;;;84.80;54.77;;;;;;;;;;5029576;28;20172;-35
2022/11/11 14:05:07;;;;;;;84.57;53.23;;;;;;;;;;5029462;28;20731;-36
2022/11/11 14:07:48;;;;;;;84.03;53.87;;;;;;;;;;5022027;28;20292;-36
2022/11/11 14:10:17;;;;;;;86.93;54.00;;;;;;;;;;5031317;28;20372;-36
2022/11/11 14:12:44;;;;;;;91.60;59.90;;;;;;;;;;5029675;28;20765;-36
2022/11/11 14:15:29;;;;;;;92.40;59.53;;;;;;;;;;5030415;28;20350;-36
2022/11/11 14:17:55;;;;;;;95.27;60.83;;;;;;;;;;5032405;28;20179;-36
2022/11/11 14:20:30;;;;;;;93.67;59.13;;;;;;;;;;5031650;28;20532;-36
2022/11/11 14:23:15;;;;;;;92.23;57.13;;;;;;;;;;5029962;28;20901;-36
2022/11/11 14:25:41;;;;;;;91.00;59.63;;;;;;;;;;5030535;28;20923;-36
2022/11/11 14:28:26;;;;;;;96.73;59.03;;;;;;;;;;5030558;28;20175;-36
2022/11/11 14:30:53;;;;;;;92.30;57.60;;;;;;;;;;5031887;28;20357;-35
2022/11/11 14:33:19;;;;;;;89.37;57.47;;;;;;;;;;5030284;28;20207;-36
2022/11/11 14:36:00;;;;;;;92.00;58.17;;;;;;;;;;5028320;28;20697;-36
2022/11/11 14:38:35;;;;;;;86.13;57.23;;;;;;;;;;5030985;28;21520;-36
2022/11/11 14:41:20;;;;;;;90.17;57.43;;;;;;;;;;5027638;28;20163;-36
2022/11/11 14:43:46;;;;;;;86.70;56.93;;;;;;;;;;5029755;28;20188;-36
2022/11/11 14:46:12;;;;;;;89.10;56.53;;;;;;;;;;5029329;28;20287;-35
2022/11/11 14:48:57;;;;;;;92.90;58.37;;;;;;;;;;5032789;28;20273;-36
2022/11/11 14:51:35;;;;;;;91.77;56.60;;;;;;;;;;5034519;28;20180;-36
2022/11/11 14:54:03;;;;;;;86.73;56.17;;;;;;;;;;5031617;28;20199;-36
2022/11/11 14:56:29;;;;;;;88.63;57.60;;;;;;;;;;5029379;28;20777;-36
2022/11/11 14:58:59;;;;;;;89.27;57.80;;;;;;;;;;5032094;28;20250;-36
2022/11/11 15:01:26;;;;;;;83.27;54.67;;;;;;;;;;5032599;28;20207;-35
2022/11/11 15:03:52;;;;;;;93.70;58.60;;;;;;;;;;5027941;28;20253;-36
2022/11/11 15:06:18;;;;;;;87.50;57.30;;;;;;;;;;5028131;28;20206;-36
2022/11/11 15:08:44;;;;;;;102.17;63.33;;;;;;;;;;5033099;28;20191;-36
2022/11/11 15:11:10;;;;;;;94.20;60.23;;;;;;;;;;5030232;28;20636;-35
2022/11/11 15:13:36;;;;;;;93.10;61.07;;;;;;;;;;5025467;28;20203;-36
2022/11/11 15:16:12;;;;;;;97.30;60.90;;;;;;;;;;5027637;28;20493;-36
2022/11/11 15:18:40;;;;;;;98.17;61.70;;;;;;;;;;5028848;28;21356;-35
2022/11/11 15:21:10;;;;;;;98.77;62.87;;;;;;;;;;5030582;28;20800;-35
2022/11/11 15:23:49;;;;;;;102.50;64.00;;;;;;;;;;5028723;28;21936;-35
2022/11/11 15:26:35;;;;;;;99.00;62.30;;;;;;;;;;5027208;28;20352;-35
2022/11/11 15:29:07;;;;;;;107.57;68.67;;;;;;;;;;5031294;28;20757;-35